San Francisco, California
Current Conditions -  °F | °C
As of 5:56 PM on Friday 31 Oct 2014 (Local Time) from KSFO Reporting Station
Overcast Overcast  
Wind Chill: 60°   Ceiling: 9000
Heat Index: 60°   Visibility: 10mi
Dew Point: 55°   Wind: 13mph
Humidity: 83%   Direction: 260°W
Pressure: 29.79"   Gusts: NA
Location:  37.78°N, 122.42°W
Report Text: KSFO 010056Z 26011KT 10SM FEW015 SCT028 BKN090 OVC160 16/13 A2979 RMK AO2 SLP086 T01560128
Loading
Personal Weather Stations






























Interactive Weather Map
Tropical Storm Tracking
New forecast layout! Learn more

10-Day Weather Forecast

Advertisements
Track Severe Weather on mobile